EGNM - Leeds, Bradford
Distance from station: E 5mi, 14km
Updated: 12/17/2017 1:20pm
Clear
Clear
 Wind from WNW
Wind: WNW 15 mph , 24 km/h
Temperature: 39°F , 4°C
Wind Chill: 31°F , -1°C
Dew Point: 34°F , 1°C
Humidity: 81%
Barometer: 30.09 inHg , 1019 hPa
Summary: Clear
Visibility: greater than 7 miles , 10 km
2017/12/17 21:20 EGNM 172120Z 29013KT CAVOK 04/01 Q1019